Dedham, Massachusetts
Current Conditions -  °F | °C
As of 11:26 PM on Monday 22 Dec 2014 (Local Time) from KOWD Reporting Station
Haze Haze  
Wind Chill: 35°   Ceiling: 6000
Heat Index: 35°   Visibility: 4mi
Dew Point: 35°   Wind: 0mph
Humidity: 100%   Direction: NA
Pressure: 30.29"   Gusts: NA
Location:  42.25°N, 71.17°W
Report Text: KOWD 230426Z AUTO 00000KT 4SM BR OVC060 02/02 A3029 RMK AO2 T00170017
Loading
Personal Weather Stations






























Interactive Weather Map New forecast layout! Learn more

10-Day Weather Forecast

Advertisements
Track Severe Weather on mobile